Aérodrome :
LOGIN :

S'inscrire | Disclaimer

   EN    FR    IT 

 










Légende :    VFR   VFR Marginal   IFR   IFR Intensif   IFR Très Intensif
Visi : 
Plafond : 
>= 8 km
>= 3000ft
5 à 8 km
1000 à 3000 ft
1500m à 5 km
500 à 1000 ft
800 à 1500m
200 à 500 ft
< 800m
< 200 ft
Symboles :   Orages  Brouillard  Fortes neiges  Fortes précipitations  Vent > 20 kt
SIGMETs :   Divers  Orages  Givrage  Turbulence  Onde Orograph.  Cendres Volcan.







- Altitude de l'aérodrome : 776 ft
- Code IATA : RMS


ETAR - Ramstein Air Base

DERNIER METAR :
  • 242056Z AUTO 00000KT 9999 CLR 03/01 A3023 RMK AO2 SLP248 T00260011 55001 $

METARs EXPIRÉS :
  • 241956Z AUTO 00000KT 9999 CLR 04/01 A3024 RMK AO2 SLP252 T00370014 $

TAF TAF ETAR
Valide du 24 à 18h jusqu'au 26 à 00h UTC


241803Z 2418/2600 34009KT 9999 BKN040 QNH3023INS
BECMG 2423/2424 29009KT 9999 SCT030 QNH3019INS
BECMG 2507/2508 28012G20KT 8000 -SHRA BKN030 620405 QNH3018INS
BECMG 2509/2510 31012G25KT 8000 -SHRA BKN030 620405 520003 QNH3021INS
BECMG 2515/2516 32012G20KT 9999 NSW BKN030 620402 QNH3021INS
BECMG 2519/2520 34010G18KT 9999 BKN020 620202 QNH3027INS TX11/2514Z TNM02/2505Z
Pas de NOTAMs connus pour ce terrain.



MET'MAP, la Météo Aéronautique d'un coup d'oeil ! - Copyright ORBIFLY Décembre 2007 - Disclaimer

ORBIFLY MET'MAP TEAM :

Programmation & Développement : Alexandra Zaïnal
Conception & Développement : Baudouin d'Aumeries
Co-Programmation & Développement : Marc-Olivier Méhu
Soutien technique & logistique : Manuel Goepfert

Contact : metmap@orbifly.com




SOURCES & CREDITS :

   NOAA